sensor_id;sensor_type;location;lat;lon;timestamp;P1;durP1;ratioP1;P2;durP2;ratioP2
22557;SDS011;11445;53.816;8.902;2023-09-07T00:01:32;7.93;;;7.15;;
22557;SDS011;11445;53.816;8.902;2023-09-07T00:03:59;10.82;;;7.80;;
22557;SDS011;11445;53.816;8.902;2023-09-07T00:06:28;8.68;;;7.88;;
22557;SDS011;11445;53.816;8.902;2023-09-07T00:08:56;10.68;;;8.38;;
22557;SDS011;11445;53.816;8.902;2023-09-07T00:11:23;12.13;;;7.57;;
22557;SDS011;11445;53.816;8.902;2023-09-07T00:13:49;11.20;;;8.45;;
22557;SDS011;11445;53.816;8.902;2023-09-07T00:16:16;9.52;;;8.52;;
22557;SDS011;11445;53.816;8.902;2023-09-07T00:18:44;9.30;;;8.38;;
22557;SDS011;11445;53.816;8.902;2023-09-07T00:21:10;16.20;;;8.95;;
22557;SDS011;11445;53.816;8.902;2023-09-07T00:23:39;14.93;;;8.50;;
22557;SDS011;11445;53.816;8.902;2023-09-07T00:26:07;10.38;;;8.98;;
22557;SDS011;11445;53.816;8.902;2023-09-07T00:28:35;10.10;;;8.85;;
22557;SDS011;11445;53.816;8.902;2023-09-07T00:31:02;12.70;;;9.23;;
22557;SDS011;11445;53.816;8.902;2023-09-07T00:33:29;12.40;;;9.38;;
22557;SDS011;11445;53.816;8.902;2023-09-07T00:35:56;13.43;;;9.65;;
22557;SDS011;11445;53.816;8.902;2023-09-07T00:38:22;12.98;;;9.95;;
22557;SDS011;11445;53.816;8.902;2023-09-07T00:40:49;11.13;;;9.27;;
22557;SDS011;11445;53.816;8.902;2023-09-07T00:43:17;10.65;;;9.65;;
22557;SDS011;11445;53.816;8.902;2023-09-07T00:45:44;11.63;;;10.40;;
22557;SDS011;11445;53.816;8.902;2023-09-07T00:48:11;12.63;;;11.32;;
22557;SDS011;11445;53.816;8.902;2023-09-07T00:50:39;11.98;;;10.73;;
22557;SDS011;11445;53.816;8.902;2023-09-07T00:53:06;12.95;;;11.55;;
22557;SDS011;11445;53.816;8.902;2023-09-07T00:55:33;13.38;;;11.68;;
22557;SDS011;11445;53.816;8.902;2023-09-07T00:58:01;16.08;;;11.13;;
22557;SDS011;11445;53.816;8.902;2023-09-07T01:00:30;13.82;;;11.95;;
22557;SDS011;11445;53.816;8.902;2023-09-07T01:02:58;14.80;;;12.13;;
22557;SDS011;11445;53.816;8.902;2023-09-07T01:05:27;14.00;;;12.52;;
22557;SDS011;11445;53.816;8.902;2023-09-07T01:10:29;14.85;;;12.75;;
22557;SDS011;11445;53.816;8.902;2023-09-07T01:12:56;18.85;;;13.20;;
22557;SDS011;11445;53.816;8.902;2023-09-07T01:15:23;15.25;;;12.98;;
22557;SDS011;11445;53.816;8.902;2023-09-07T01:17:51;16.60;;;12.70;;
22557;SDS011;11445;53.816;8.902;2023-09-07T01:20:18;20.15;;;11.48;;
22557;SDS011;11445;53.816;8.902;2023-09-07T01:22:47;13.32;;;11.43;;
22557;SDS011;11445;53.816;8.902;2023-09-07T01:25:15;16.98;;;12.35;;
22557;SDS011;11445;53.816;8.902;2023-09-07T01:27:42;16.05;;;12.10;;
22557;SDS011;11445;53.816;8.902;2023-09-07T01:30:09;19.48;;;12.35;;
22557;SDS011;11445;53.816;8.902;2023-09-07T01:32:37;14.85;;;11.75;;
22557;SDS011;11445;53.816;8.902;2023-09-07T01:35:04;16.42;;;12.95;;
22557;SDS011;11445;53.816;8.902;2023-09-07T01:37:36;14.50;;;12.57;;
22557;SDS011;11445;53.816;8.902;2023-09-07T01:40:05;14.45;;;12.25;;
22557;SDS011;11445;53.816;8.902;2023-09-07T01:42:33;14.38;;;12.88;;
22557;SDS011;11445;53.816;8.902;2023-09-07T01:45:00;14.40;;;12.82;;
22557;SDS011;11445;53.816;8.902;2023-09-07T01:47:27;15.30;;;12.82;;
22557;SDS011;11445;53.816;8.902;2023-09-07T01:49:54;16.67;;;13.15;;
22557;SDS011;11445;53.816;8.902;2023-09-07T01:52:21;14.98;;;12.82;;
22557;SDS011;11445;53.816;8.902;2023-09-07T01:54:47;15.77;;;13.23;;
22557;SDS011;11445;53.816;8.902;2023-09-07T01:57:16;15.95;;;12.82;;
22557;SDS011;11445;53.816;8.902;2023-09-07T01:59:42;17.55;;;13.43;;
22557;SDS011;11445;53.816;8.902;2023-09-07T02:02:09;14.43;;;12.48;;
22557;SDS011;11445;53.816;8.902;2023-09-07T02:04:36;15.10;;;12.60;;
22557;SDS011;11445;53.816;8.902;2023-09-07T02:07:03;16.63;;;12.52;;
22557;SDS011;11445;53.816;8.902;2023-09-07T02:09:31;14.35;;;11.95;;
22557;SDS011;11445;53.816;8.902;2023-09-07T02:11:58;16.63;;;13.20;;
22557;SDS011;11445;53.816;8.902;2023-09-07T02:14:26;14.75;;;13.15;;
22557;SDS011;11445;53.816;8.902;2023-09-07T02:16:53;16.13;;;13.18;;
22557;SDS011;11445;53.816;8.902;2023-09-07T02:19:20;15.95;;;13.23;;
22557;SDS011;11445;53.816;8.902;2023-09-07T02:21:48;16.98;;;13.02;;
22557;SDS011;11445;53.816;8.902;2023-09-07T02:24:16;14.50;;;12.63;;
22557;SDS011;11445;53.816;8.902;2023-09-07T02:26:43;14.40;;;12.85;;
22557;SDS011;11445;53.816;8.902;2023-09-07T02:29:10;17.50;;;12.80;;
22557;SDS011;11445;53.816;8.902;2023-09-07T02:31:39;16.27;;;13.48;;
22557;SDS011;11445;53.816;8.902;2023-09-07T02:34:05;16.83;;;12.85;;
22557;SDS011;11445;53.816;8.902;2023-09-07T02:36:33;15.35;;;11.60;;
22557;SDS011;11445;53.816;8.902;2023-09-07T02:39:00;15.10;;;12.55;;
22557;SDS011;11445;53.816;8.902;2023-09-07T02:41:28;14.13;;;11.90;;
22557;SDS011;11445;53.816;8.902;2023-09-07T02:43:56;17.90;;;12.55;;
22557;SDS011;11445;53.816;8.902;2023-09-07T02:46:23;14.23;;;12.25;;
22557;SDS011;11445;53.816;8.902;2023-09-07T02:48:51;19.58;;;12.85;;
22557;SDS011;11445;53.816;8.902;2023-09-07T02:51:22;22.40;;;13.43;;
22557;SDS011;11445;53.816;8.902;2023-09-07T02:53:49;15.32;;;12.45;;
22557;SDS011;11445;53.816;8.902;2023-09-07T02:56:16;14.52;;;12.65;;
22557;SDS011;11445;53.816;8.902;2023-09-07T02:58:43;16.77;;;11.98;;
22557;SDS011;11445;53.816;8.902;2023-09-07T03:01:10;13.23;;;11.85;;
22557;SDS011;11445;53.816;8.902;2023-09-07T03:03:38;14.65;;;12.85;;
22557;SDS011;11445;53.816;8.902;2023-09-07T03:06:09;18.30;;;13.23;;
22557;SDS011;11445;53.816;8.902;2023-09-07T03:08:37;14.80;;;13.20;;
22557;SDS011;11445;53.816;8.902;2023-09-07T03:11:05;17.25;;;13.70;;
22557;SDS011;11445;53.816;8.902;2023-09-07T03:13:33;16.17;;;13.48;;
22557;SDS011;11445;53.816;8.902;2023-09-07T03:16:01;26.25;;;14.13;;
22557;SDS011;11445;53.816;8.902;2023-09-07T03:18:29;18.25;;;13.93;;
22557;SDS011;11445;53.816;8.902;2023-09-07T03:20:58;18.05;;;14.50;;
22557;SDS011;11445;53.816;8.902;2023-09-07T03:23:27;15.70;;;13.63;;
22557;SDS011;11445;53.816;8.902;2023-09-07T03:25:55;15.32;;;13.73;;
22557;SDS011;11445;53.816;8.902;2023-09-07T03:28:22;21.05;;;13.65;;
22557;SDS011;11445;53.816;8.902;2023-09-07T03:30:49;16.08;;;13.63;;
22557;SDS011;11445;53.816;8.902;2023-09-07T03:33:16;16.65;;;14.10;;
22557;SDS011;11445;53.816;8.902;2023-09-07T03:35:43;18.10;;;14.10;;
22557;SDS011;11445;53.816;8.902;2023-09-07T03:38:10;15.05;;;13.38;;
22557;SDS011;11445;53.816;8.902;2023-09-07T03:40:38;19.20;;;14.07;;
22557;SDS011;11445;53.816;8.902;2023-09-07T03:43:05;17.45;;;13.80;;
22557;SDS011;11445;53.816;8.902;2023-09-07T03:45:32;17.17;;;14.65;;
22557;SDS011;11445;53.816;8.902;2023-09-07T03:47:59;19.02;;;14.38;;
22557;SDS011;11445;53.816;8.902;2023-09-07T03:50:25;18.75;;;15.40;;
22557;SDS011;11445;53.816;8.902;2023-09-07T03:52:54;16.90;;;14.93;;
22557;SDS011;11445;53.816;8.902;2023-09-07T03:55:20;19.27;;;14.00;;
22557;SDS011;11445;53.816;8.902;2023-09-07T03:57:49;19.08;;;14.60;;
22557;SDS011;11445;53.816;8.902;2023-09-07T04:00:16;18.92;;;14.90;;
22557;SDS011;11445;53.816;8.902;2023-09-07T04:02:43;17.50;;;14.60;;
22557;SDS011;11445;53.816;8.902;2023-09-07T04:05:10;17.52;;;13.85;;
22557;SDS011;11445;53.816;8.902;2023-09-07T04:07:37;16.77;;;13.70;;
22557;SDS011;11445;53.816;8.902;2023-09-07T04:10:04;19.98;;;14.35;;
22557;SDS011;11445;53.816;8.902;2023-09-07T04:12:32;21.30;;;14.23;;
22557;SDS011;11445;53.816;8.902;2023-09-07T04:15:01;16.20;;;13.68;;
22557;SDS011;11445;53.816;8.902;2023-09-07T04:17:28;20.52;;;14.05;;
22557;SDS011;11445;53.816;8.902;2023-09-07T04:19:55;20.88;;;13.65;;
22557;SDS011;11445;53.816;8.902;2023-09-07T04:22:22;15.05;;;13.45;;
22557;SDS011;11445;53.816;8.902;2023-09-07T04:24:49;16.95;;;13.85;;
22557;SDS011;11445;53.816;8.902;2023-09-07T04:27:15;17.90;;;13.45;;
22557;SDS011;11445;53.816;8.902;2023-09-07T04:29:42;19.20;;;13.82;;
22557;SDS011;11445;53.816;8.902;2023-09-07T04:32:10;16.90;;;14.05;;
22557;SDS011;11445;53.816;8.902;2023-09-07T04:34:37;16.58;;;13.55;;
22557;SDS011;11445;53.816;8.902;2023-09-07T04:37:04;18.10;;;14.23;;
22557;SDS011;11445;53.816;8.902;2023-09-07T04:39:31;15.32;;;12.52;;
22557;SDS011;11445;53.816;8.902;2023-09-07T04:41:58;15.20;;;13.07;;
22557;SDS011;11445;53.816;8.902;2023-09-07T04:44:25;15.35;;;12.20;;
22557;SDS011;11445;53.816;8.902;2023-09-07T04:46:54;17.23;;;12.38;;
22557;SDS011;11445;53.816;8.902;2023-09-07T04:49:22;18.23;;;11.82;;
22557;SDS011;11445;53.816;8.902;2023-09-07T04:51:49;15.35;;;12.35;;
22557;SDS011;11445;53.816;8.902;2023-09-07T04:54:18;14.73;;;12.00;;
22557;SDS011;11445;53.816;8.902;2023-09-07T04:56:45;17.70;;;12.15;;
22557;SDS011;11445;53.816;8.902;2023-09-07T04:59:12;13.13;;;11.55;;
22557;SDS011;11445;53.816;8.902;2023-09-07T05:01:39;15.32;;;11.32;;
22557;SDS011;11445;53.816;8.902;2023-09-07T05:04:06;16.40;;;11.10;;
22557;SDS011;11445;53.816;8.902;2023-09-07T05:06:34;15.63;;;11.65;;
22557;SDS011;11445;53.816;8.902;2023-09-07T05:09:02;12.70;;;10.98;;
22557;SDS011;11445;53.816;8.902;2023-09-07T05:11:29;14.48;;;11.27;;
22557;SDS011;11445;53.816;8.902;2023-09-07T05:13:59;13.80;;;11.00;;
22557;SDS011;11445;53.816;8.902;2023-09-07T05:16:26;19.30;;;10.40;;
22557;SDS011;11445;53.816;8.902;2023-09-07T05:18:53;13.38;;;11.00;;
22557;SDS011;11445;53.816;8.902;2023-09-07T05:21:20;12.45;;;10.32;;
22557;SDS011;11445;53.816;8.902;2023-09-07T05:23:48;12.77;;;9.63;;
22557;SDS011;11445;53.816;8.902;2023-09-07T05:26:20;13.80;;;10.32;;
22557;SDS011;11445;53.816;8.902;2023-09-07T05:28:47;12.68;;;10.48;;
22557;SDS011;11445;53.816;8.902;2023-09-07T05:31:14;15.00;;;9.30;;
22557;SDS011;11445;53.816;8.902;2023-09-07T05:33:41;12.73;;;9.98;;
22557;SDS011;11445;53.816;8.902;2023-09-07T05:36:07;15.48;;;9.15;;
22557;SDS011;11445;53.816;8.902;2023-09-07T05:38:34;12.05;;;9.68;;
22557;SDS011;11445;53.816;8.902;2023-09-07T05:41:03;12.38;;;9.82;;
22557;SDS011;11445;53.816;8.902;2023-09-07T05:43:29;11.43;;;9.98;;
22557;SDS011;11445;53.816;8.902;2023-09-07T05:45:56;11.70;;;9.20;;
22557;SDS011;11445;53.816;8.902;2023-09-07T05:48:23;11.50;;;9.95;;
22557;SDS011;11445;53.816;8.902;2023-09-07T05:50:50;12.80;;;10.02;;
22557;SDS011;11445;53.816;8.902;2023-09-07T05:53:18;16.30;;;8.70;;
22557;SDS011;11445;53.816;8.902;2023-09-07T05:55:45;13.25;;;8.95;;
22557;SDS011;11445;53.816;8.902;2023-09-07T05:58:13;10.77;;;9.30;;
22557;SDS011;11445;53.816;8.902;2023-09-07T06:00:40;10.80;;;9.70;;
22557;SDS011;11445;53.816;8.902;2023-09-07T06:03:07;11.63;;;9.35;;
22557;SDS011;11445;53.816;8.902;2023-09-07T06:05:35;14.43;;;9.77;;
22557;SDS011;11445;53.816;8.902;2023-09-07T06:08:04;10.98;;;8.85;;
22557;SDS011;11445;53.816;8.902;2023-09-07T06:10:32;16.05;;;8.40;;
22557;SDS011;11445;53.816;8.902;2023-09-07T06:12:59;11.65;;;9.60;;
22557;SDS011;11445;53.816;8.902;2023-09-07T06:15:29;10.40;;;8.90;;
22557;SDS011;11445;53.816;8.902;2023-09-07T06:17:56;11.40;;;8.45;;
22557;SDS011;11445;53.816;8.902;2023-09-07T06:20:22;11.18;;;8.85;;
22557;SDS011;11445;53.816;8.902;2023-09-07T06:22:49;11.40;;;9.20;;
22557;SDS011;11445;53.816;8.902;2023-09-07T06:25:16;13.90;;;8.25;;
22557;SDS011;11445;53.816;8.902;2023-09-07T06:27:43;9.07;;;8.10;;
22557;SDS011;11445;53.816;8.902;2023-09-07T06:30:10;10.75;;;8.43;;
22557;SDS011;11445;53.816;8.902;2023-09-07T06:32:39;13.27;;;8.23;;
22557;SDS011;11445;53.816;8.902;2023-09-07T06:35:06;8.98;;;8.00;;
22557;SDS011;11445;53.816;8.902;2023-09-07T06:37:34;8.88;;;7.88;;
22557;SDS011;11445;53.816;8.902;2023-09-07T06:40:05;9.48;;;8.02;;
22557;SDS011;11445;53.816;8.902;2023-09-07T06:42:33;10.30;;;7.70;;
22557;SDS011;11445;53.816;8.902;2023-09-07T06:45:00;10.32;;;7.65;;
22557;SDS011;11445;53.816;8.902;2023-09-07T06:47:27;15.27;;;8.40;;
22557;SDS011;11445;53.816;8.902;2023-09-07T06:49:56;10.05;;;7.65;;
22557;SDS011;11445;53.816;8.902;2023-09-07T06:52:22;9.63;;;7.60;;
22557;SDS011;11445;53.816;8.902;2023-09-07T06:54:50;11.18;;;7.70;;
22557;SDS011;11445;53.816;8.902;2023-09-07T06:57:18;10.32;;;8.40;;
22557;SDS011;11445;53.816;8.902;2023-09-07T06:59:45;8.55;;;7.40;;
22557;SDS011;11445;53.816;8.902;2023-09-07T07:02:11;10.45;;;7.80;;
22557;SDS011;11445;53.816;8.902;2023-09-07T07:04:38;9.48;;;8.10;;
22557;SDS011;11445;53.816;8.902;2023-09-07T07:07:06;8.27;;;7.28;;
22557;SDS011;11445;53.816;8.902;2023-09-07T07:09:33;10.63;;;7.57;;
22557;SDS011;11445;53.816;8.902;2023-09-07T07:12:00;8.38;;;7.45;;
22557;SDS011;11445;53.816;8.902;2023-09-07T07:14:27;9.13;;;7.63;;
22557;SDS011;11445;53.816;8.902;2023-09-07T07:16:53;8.35;;;7.47;;
22557;SDS011;11445;53.816;8.902;2023-09-07T07:19:20;10.75;;;7.28;;
22557;SDS011;11445;53.816;8.902;2023-09-07T07:21:47;15.68;;;7.90;;
22557;SDS011;11445;53.816;8.902;2023-09-07T07:24:16;9.45;;;7.50;;
22557;SDS011;11445;53.816;8.902;2023-09-07T07:26:43;9.10;;;7.75;;
22557;SDS011;11445;53.816;8.902;2023-09-07T07:29:10;9.38;;;6.53;;
22557;SDS011;11445;53.816;8.902;2023-09-07T07:31:37;15.90;;;7.88;;
22557;SDS011;11445;53.816;8.902;2023-09-07T07:34:04;7.78;;;6.80;;
22557;SDS011;11445;53.816;8.902;2023-09-07T07:36:31;11.30;;;7.55;;
22557;SDS011;11445;53.816;8.902;2023-09-07T07:38:58;10.10;;;7.30;;
22557;SDS011;11445;53.816;8.902;2023-09-07T07:41:26;8.98;;;7.15;;
22557;SDS011;11445;53.816;8.902;2023-09-07T07:43:53;8.82;;;7.05;;
22557;SDS011;11445;53.816;8.902;2023-09-07T07:46:19;7.78;;;6.97;;
22557;SDS011;11445;53.816;8.902;2023-09-07T07:48:46;8.35;;;6.93;;
22557;SDS011;11445;53.816;8.902;2023-09-07T07:51:13;9.50;;;7.07;;
22557;SDS011;11445;53.816;8.902;2023-09-07T07:53:40;7.78;;;6.80;;
22557;SDS011;11445;53.816;8.902;2023-09-07T07:56:13;7.40;;;6.70;;
22557;SDS011;11445;53.816;8.902;2023-09-07T07:58:42;9.25;;;6.95;;
22557;SDS011;11445;53.816;8.902;2023-09-07T08:01:12;12.73;;;6.90;;
22557;SDS011;11445;53.816;8.902;2023-09-07T08:03:40;7.47;;;6.32;;
22557;SDS011;11445;53.816;8.902;2023-09-07T08:06:07;7.68;;;6.65;;
22557;SDS011;11445;53.816;8.902;2023-09-07T08:08:34;8.48;;;6.22;;
22557;SDS011;11445;53.816;8.902;2023-09-07T08:11:01;7.65;;;6.85;;
22557;SDS011;11445;53.816;8.902;2023-09-07T08:13:30;7.18;;;6.03;;
22557;SDS011;11445;53.816;8.902;2023-09-07T08:15:59;12.50;;;6.13;;
22557;SDS011;11445;53.816;8.902;2023-09-07T08:18:26;8.50;;;6.20;;
22557;SDS011;11445;53.816;8.902;2023-09-07T08:20:53;9.20;;;5.97;;
22557;SDS011;11445;53.816;8.902;2023-09-07T08:23:20;9.90;;;6.35;;
22557;SDS011;11445;53.816;8.902;2023-09-07T08:25:47;10.75;;;6.68;;
22557;SDS011;11445;53.816;8.902;2023-09-07T08:28:14;6.90;;;6.25;;
22557;SDS011;11445;53.816;8.902;2023-09-07T08:30:43;7.60;;;6.18;;
22557;SDS011;11445;53.816;8.902;2023-09-07T08:33:11;10.27;;;6.82;;
22557;SDS011;11445;53.816;8.902;2023-09-07T08:35:38;10.35;;;5.57;;
22557;SDS011;11445;53.816;8.902;2023-09-07T08:38:09;8.50;;;6.28;;
22557;SDS011;11445;53.816;8.902;2023-09-07T08:40:36;11.88;;;5.90;;
22557;SDS011;11445;53.816;8.902;2023-09-07T08:43:05;9.02;;;6.35;;
22557;SDS011;11445;53.816;8.902;2023-09-07T08:45:37;9.82;;;5.88;;
22557;SDS011;11445;53.816;8.902;2023-09-07T08:48:07;11.55;;;6.07;;
22557;SDS011;11445;53.816;8.902;2023-09-07T08:50:37;7.85;;;5.80;;
22557;SDS011;11445;53.816;8.902;2023-09-07T08:53:07;8.70;;;5.82;;
22557;SDS011;11445;53.816;8.902;2023-09-07T08:55:34;9.18;;;5.70;;
22557;SDS011;11445;53.816;8.902;2023-09-07T08:58:01;9.23;;;6.13;;
22557;SDS011;11445;53.816;8.902;2023-09-07T09:00:29;6.68;;;6.00;;
22557;SDS011;11445;53.816;8.902;2023-09-07T09:02:56;8.25;;;5.20;;
22557;SDS011;11445;53.816;8.902;2023-09-07T09:05:23;5.78;;;5.20;;
22557;SDS011;11445;53.816;8.902;2023-09-07T09:08:01;8.40;;;5.47;;
22557;SDS011;11445;53.816;8.902;2023-09-07T09:10:29;7.65;;;6.15;;
22557;SDS011;11445;53.816;8.902;2023-09-07T09:12:56;6.57;;;5.30;;
22557;SDS011;11445;53.816;8.902;2023-09-07T09:15:24;5.97;;;5.10;;
22557;SDS011;11445;53.816;8.902;2023-09-07T09:17:52;9.25;;;5.60;;
22557;SDS011;11445;53.816;8.902;2023-09-07T09:20:19;14.60;;;5.25;;
22557;SDS011;11445;53.816;8.902;2023-09-07T09:22:48;8.45;;;5.55;;
22557;SDS011;11445;53.816;8.902;2023-09-07T09:25:17;6.85;;;5.80;;
22557;SDS011;11445;53.816;8.902;2023-09-07T09:27:44;8.00;;;5.80;;
22557;SDS011;11445;53.816;8.902;2023-09-07T09:30:12;8.07;;;5.30;;
22557;SDS011;11445;53.816;8.902;2023-09-07T09:32:41;5.82;;;5.07;;
22557;SDS011;11445;53.816;8.902;2023-09-07T09:35:08;8.90;;;5.38;;
22557;SDS011;11445;53.816;8.902;2023-09-07T09:37:42;8.15;;;5.22;;
22557;SDS011;11445;53.816;8.902;2023-09-07T09:40:10;9.38;;;5.13;;
22557;SDS011;11445;53.816;8.902;2023-09-07T09:42:39;8.05;;;5.40;;
22557;SDS011;11445;53.816;8.902;2023-09-07T09:45:08;7.28;;;4.90;;
22557;SDS011;11445;53.816;8.902;2023-09-07T09:47:36;6.35;;;4.85;;
22557;SDS011;11445;53.816;8.902;2023-09-07T09:50:06;5.22;;;4.72;;
22557;SDS011;11445;53.816;8.902;2023-09-07T09:52:34;6.30;;;5.05;;
22557;SDS011;11445;53.816;8.902;2023-09-07T09:55:03;10.60;;;5.07;;
22557;SDS011;11445;53.816;8.902;2023-09-07T09:57:32;8.07;;;4.60;;
22557;SDS011;11445;53.816;8.902;2023-09-07T10:00:02;8.60;;;4.85;;
22557;SDS011;11445;53.816;8.902;2023-09-07T10:02:44;7.35;;;4.85;;
22557;SDS011;11445;53.816;8.902;2023-09-07T10:05:16;8.52;;;4.72;;
22557;SDS011;11445;53.816;8.902;2023-09-07T10:07:45;9.95;;;4.93;;
22557;SDS011;11445;53.816;8.902;2023-09-07T10:10:14;10.73;;;5.00;;
22557;SDS011;11445;53.816;8.902;2023-09-07T10:12:42;16.63;;;4.80;;
22557;SDS011;11445;53.816;8.902;2023-09-07T10:15:23;9.88;;;4.57;;
22557;SDS011;11445;53.816;8.902;2023-09-07T10:18:02;4.50;;;4.10;;
22557;SDS011;11445;53.816;8.902;2023-09-07T10:20:34;7.50;;;5.00;;
22557;SDS011;11445;53.816;8.902;2023-09-07T10:23:12;6.25;;;4.93;;
22557;SDS011;11445;53.816;8.902;2023-09-07T10:25:39;7.43;;;4.25;;
22557;SDS011;11445;53.816;8.902;2023-09-07T10:28:16;7.10;;;4.85;;
22557;SDS011;11445;53.816;8.902;2023-09-07T10:30:46;6.32;;;3.92;;
22557;SDS011;11445;53.816;8.902;2023-09-07T10:33:24;8.63;;;3.90;;
22557;SDS011;11445;53.816;8.902;2023-09-07T10:35:51;6.43;;;3.88;;
22557;SDS011;11445;53.816;8.902;2023-09-07T10:38:18;7.00;;;3.70;;
22557;SDS011;11445;53.816;8.902;2023-09-07T10:40:45;7.50;;;4.22;;
22557;SDS011;11445;53.816;8.902;2023-09-07T10:43:13;12.57;;;3.58;;
22557;SDS011;11445;53.816;8.902;2023-09-07T10:45:43;4.88;;;3.42;;
22557;SDS011;11445;53.816;8.902;2023-09-07T10:48:11;7.45;;;3.67;;
22557;SDS011;11445;53.816;8.902;2023-09-07T10:50:42;3.67;;;3.30;;
22557;SDS011;11445;53.816;8.902;2023-09-07T10:53:11;8.48;;;3.20;;
22557;SDS011;11445;53.816;8.902;2023-09-07T10:55:38;8.68;;;3.13;;
22557;SDS011;11445;53.816;8.902;2023-09-07T10:58:06;8.32;;;3.72;;
22557;SDS011;11445;53.816;8.902;2023-09-07T11:00:33;6.97;;;3.55;;
22557;SDS011;11445;53.816;8.902;2023-09-07T11:03:07;4.53;;;2.97;;
22557;SDS011;11445;53.816;8.902;2023-09-07T11:05:36;3.53;;;3.22;;
22557;SDS011;11445;53.816;8.902;2023-09-07T11:08:05;5.43;;;3.30;;
22557;SDS011;11445;53.816;8.902;2023-09-07T11:10:33;7.65;;;3.30;;
22557;SDS011;11445;53.816;8.902;2023-09-07T11:13:03;3.63;;;3.33;;
22557;SDS011;11445;53.816;8.902;2023-09-07T11:15:31;3.75;;;3.35;;
22557;SDS011;11445;53.816;8.902;2023-09-07T11:17:58;4.70;;;3.40;;
22557;SDS011;11445;53.816;8.902;2023-09-07T11:20:31;5.22;;;3.45;;
22557;SDS011;11445;53.816;8.902;2023-09-07T11:22:59;4.25;;;3.10;;
22557;SDS011;11445;53.816;8.902;2023-09-07T11:25:26;4.60;;;3.28;;
22557;SDS011;11445;53.816;8.902;2023-09-07T11:33:50;4.72;;;3.40;;
22557;SDS011;11445;53.816;8.902;2023-09-07T11:36:18;9.95;;;3.38;;
22557;SDS011;11445;53.816;8.902;2023-09-07T11:38:48;5.38;;;3.20;;
22557;SDS011;11445;53.816;8.902;2023-09-07T11:41:15;9.43;;;4.05;;
22557;SDS011;11445;53.816;8.902;2023-09-07T11:43:42;7.90;;;3.10;;
22557;SDS011;11445;53.816;8.902;2023-09-07T11:46:10;9.95;;;3.05;;
22557;SDS011;11445;53.816;8.902;2023-09-07T11:48:37;7.45;;;3.30;;
22557;SDS011;11445;53.816;8.902;2023-09-07T11:51:04;3.80;;;3.50;;
22557;SDS011;11445;53.816;8.902;2023-09-07T11:53:33;8.32;;;3.38;;
22557;SDS011;11445;53.816;8.902;2023-09-07T11:56:00;7.18;;;3.53;;
22557;SDS011;11445;53.816;8.902;2023-09-07T11:58:27;6.97;;;3.75;;
22557;SDS011;11445;53.816;8.902;2023-09-07T12:00:54;7.18;;;3.85;;
22557;SDS011;11445;53.816;8.902;2023-09-07T12:03:21;8.73;;;3.53;;
22557;SDS011;11445;53.816;8.902;2023-09-07T12:05:48;4.40;;;3.42;;
22557;SDS011;11445;53.816;8.902;2023-09-07T12:08:14;5.85;;;3.13;;
22557;SDS011;11445;53.816;8.902;2023-09-07T12:10:43;4.57;;;3.50;;
22557;SDS011;11445;53.816;8.902;2023-09-07T12:13:09;11.30;;;3.72;;
22557;SDS011;11445;53.816;8.902;2023-09-07T12:15:36;11.88;;;4.07;;
22557;SDS011;11445;53.816;8.902;2023-09-07T12:18:03;9.80;;;4.20;;
22557;SDS011;11445;53.816;8.902;2023-09-07T12:20:30;4.53;;;3.70;;
22557;SDS011;11445;53.816;8.902;2023-09-07T12:22:59;7.10;;;3.58;;
22557;SDS011;11445;53.816;8.902;2023-09-07T12:25:27;4.50;;;3.58;;
22557;SDS011;11445;53.816;8.902;2023-09-07T12:27:55;5.25;;;3.70;;
22557;SDS011;11445;53.816;8.902;2023-09-07T12:30:22;4.75;;;3.70;;
22557;SDS011;11445;53.816;8.902;2023-09-07T12:32:49;6.95;;;3.47;;
22557;SDS011;11445;53.816;8.902;2023-09-07T12:35:16;6.28;;;3.58;;
22557;SDS011;11445;53.816;8.902;2023-09-07T12:37:45;3.63;;;3.33;;
22557;SDS011;11445;53.816;8.902;2023-09-07T12:40:12;10.35;;;4.13;;
22557;SDS011;11445;53.816;8.902;2023-09-07T12:42:39;8.52;;;3.92;;
22557;SDS011;11445;53.816;8.902;2023-09-07T12:45:08;5.63;;;3.70;;
22557;SDS011;11445;53.816;8.902;2023-09-07T12:47:36;6.82;;;3.42;;
22557;SDS011;11445;53.816;8.902;2023-09-07T12:50:04;6.35;;;3.65;;
22557;SDS011;11445;53.816;8.902;2023-09-07T12:52:32;5.20;;;3.40;;
22557;SDS011;11445;53.816;8.902;2023-09-07T12:54:59;6.53;;;3.70;;
22557;SDS011;11445;53.816;8.902;2023-09-07T12:57:26;7.97;;;3.90;;
22557;SDS011;11445;53.816;8.902;2023-09-07T12:59:53;7.18;;;3.80;;
22557;SDS011;11445;53.816;8.902;2023-09-07T13:02:21;6.60;;;3.53;;
22557;SDS011;11445;53.816;8.902;2023-09-07T13:04:48;5.72;;;3.42;;
22557;SDS011;11445;53.816;8.902;2023-09-07T13:07:14;7.13;;;4.30;;
22557;SDS011;11445;53.816;8.902;2023-09-07T13:09:42;7.35;;;3.38;;
22557;SDS011;11445;53.816;8.902;2023-09-07T13:12:10;4.68;;;3.45;;
22557;SDS011;11445;53.816;8.902;2023-09-07T13:14:37;7.50;;;3.80;;
22557;SDS011;11445;53.816;8.902;2023-09-07T13:17:04;6.50;;;3.80;;
22557;SDS011;11445;53.816;8.902;2023-09-07T13:19:32;5.93;;;3.50;;
22557;SDS011;11445;53.816;8.902;2023-09-07T13:21:59;10.32;;;3.80;;
22557;SDS011;11445;53.816;8.902;2023-09-07T13:24:26;9.18;;;3.55;;
22557;SDS011;11445;53.816;8.902;2023-09-07T13:26:53;9.35;;;3.40;;
22557;SDS011;11445;53.816;8.902;2023-09-07T13:29:20;7.18;;;3.20;;
22557;SDS011;11445;53.816;8.902;2023-09-07T13:31:47;5.60;;;3.00;;
22557;SDS011;11445;53.816;8.902;2023-09-07T13:34:15;6.55;;;3.45;;
22557;SDS011;11445;53.816;8.902;2023-09-07T13:36:43;6.55;;;3.80;;
22557;SDS011;11445;53.816;8.902;2023-09-07T13:39:09;4.47;;;3.25;;
22557;SDS011;11445;53.816;8.902;2023-09-07T13:41:36;5.00;;;3.28;;
22557;SDS011;11445;53.816;8.902;2023-09-07T13:44:03;4.00;;;3.60;;
22557;SDS011;11445;53.816;8.902;2023-09-07T13:46:31;6.22;;;3.60;;
22557;SDS011;11445;53.816;8.902;2023-09-07T13:48:58;6.32;;;3.42;;
22557;SDS011;11445;53.816;8.902;2023-09-07T13:51:25;6.68;;;3.50;;
22557;SDS011;11445;53.816;8.902;2023-09-07T13:53:53;6.05;;;3.45;;
22557;SDS011;11445;53.816;8.902;2023-09-07T13:56:20;7.95;;;3.00;;
22557;SDS011;11445;53.816;8.902;2023-09-07T13:58:47;5.30;;;3.17;;
22557;SDS011;11445;53.816;8.902;2023-09-07T14:01:14;5.22;;;3.17;;
22557;SDS011;11445;53.816;8.902;2023-09-07T14:03:41;6.45;;;3.55;;
22557;SDS011;11445;53.816;8.902;2023-09-07T14:06:07;11.82;;;3.60;;
22557;SDS011;11445;53.816;8.902;2023-09-07T14:08:34;6.97;;;3.05;;
22557;SDS011;11445;53.816;8.902;2023-09-07T14:11:02;8.23;;;3.25;;
22557;SDS011;11445;53.816;8.902;2023-09-07T14:13:31;4.10;;;2.97;;
22557;SDS011;11445;53.816;8.902;2023-09-07T14:15:59;5.13;;;3.47;;
22557;SDS011;11445;53.816;8.902;2023-09-07T14:18:26;4.18;;;3.40;;
22557;SDS011;11445;53.816;8.902;2023-09-07T14:20:53;8.15;;;3.15;;
22557;SDS011;11445;53.816;8.902;2023-09-07T14:23:22;3.78;;;2.92;;
22557;SDS011;11445;53.816;8.902;2023-09-07T14:25:50;7.43;;;3.28;;
22557;SDS011;11445;53.816;8.902;2023-09-07T14:28:18;6.90;;;3.10;;
22557;SDS011;11445;53.816;8.902;2023-09-07T14:30:45;7.20;;;3.10;;
22557;SDS011;11445;53.816;8.902;2023-09-07T14:33:12;6.60;;;3.00;;
22557;SDS011;11445;53.816;8.902;2023-09-07T14:35:39;7.05;;;3.22;;
22557;SDS011;11445;53.816;8.902;2023-09-07T14:38:06;8.57;;;2.97;;
22557;SDS011;11445;53.816;8.902;2023-09-07T14:40:33;3.63;;;3.25;;
22557;SDS011;11445;53.816;8.902;2023-09-07T14:43:00;10.70;;;3.15;;
22557;SDS011;11445;53.816;8.902;2023-09-07T14:45:28;4.35;;;3.10;;
22557;SDS011;11445;53.816;8.902;2023-09-07T14:47:55;6.03;;;3.10;;